Архив погоды в Индиге

Метеограмма Индига
Среда, 19 Июня
Время местн. Темп Ветер Видим Явления Облачность нижн/средн/верх Атм. давл. Влжн Точка росы ВНГО R Сост. почвы Tg s
Напр Скр Прв ур.ст ур.м изм
15:00 +5.9° З,С-З 4 - 20 км - облачно с прояснениями 757 757 -0.2 68% +0.5° 1 км - - - -
12:00 +5.2° З 5 - 20 км - преимущественно облачно 757 757 +0.3 72% +0.6° 600 м - - - -
09:00 +4° З,С-З 5 - 20 км - преимущественно облачно 756 757 -0.1 78% +0.6° 600 м - - - -
06:00 +2.9° С,С-З 5 - 10 км - облачно 756 757 +0.3 84% +0.5° 600 м - Влажная (без луж) - -
03:00 +2.8° С-З 5 - 10 км небо без изменений {ливневые осадки} облачно 756 757 +0.2 88% +1° 600 м - - - -
00:00 +2.9° С-З 7 - 10 км слабый ливневый дождь облачно 756 756 -0.1 87% +0.9° 600 м - - - -
Вторник, 18 Июня
Время местн. Темп Ветер Видим Явления Облачность нижн/средн/верх Атм. давл. Влжн Точка росы ВНГО R Сост. почвы Tg s
Напр Скр Прв ур.ст ур.м изм
21:00 +3.2° С-З 5 - 20 км - облачно с прояснениями 756 756 +0.1 81% +0.3° 600 м - - - -
18:00 +4.1° С-З 5 - 20 км - преимущественно облачно 756 756 +0.4 77% +0.4° 600 м - - - -
15:00 +3.8° С,С-З 6 - 20 км - облачно с прояснениями 756 756 +0.8 76% 600 м - - - -
12:00 +3.8° С-З 6 - 20 км - преимущественно облачно 755 755 +1.2 81% +0.9° 600 м - - - -
09:00 +3.2° С,С-З 8 10 20 км - преимущественно облачно 754 754 +1 84% +0.8° 600 м - - - -
06:00 +3.3° С-З 9 12 10 км - преимущественно облачно 753 753 +0.6 76% -0.5° 600 м - Влажная (без луж) - -
03:00 +2.7° С-З 10 14 10 км ливневый дождь преимущественно облачно 752 753 +0.2 90% +1.3° 600 м - - - -
00:00 +3.5° С-З 10 14 10 км - облачно 752 752 -0.3 89% +1.8° 600 м - - - -
Понедельник, 17 Июня
Время местн. Темп Ветер Видим Явления Облачность нижн/средн/верх Атм. давл. Влжн Точка росы ВНГО R Сост. почвы Tg s
Напр Скр Прв ур.ст ур.м изм
21:00 +3.8° С-З 9 12 10 км небо без изменений {ливневые осадки} облачно с прояснениями 752 753 -0.4 87% +1.8° 600 м - - - -
18:00 +3.8° З,С-З 8 13 10 км слабый ливневый дождь облачно 753 753 +0.2 95% +3.1° 600 м 0.4 - - -
15:00 +4.3° З,С-З 7 10 10 км небо без изменений {ливневые осадки} облачно 752 753 +0.7 86% +2.2° 600 м - - - -
12:00 +3.8° З,С-З 10 13 10 км слабый ливневый дождь облачно 752 752 +0.8 89% +2.2° 600 м - - - -
09:00 +3.6° С-З 11 14 10 км - облачно 751 751 +0.6 86% +1.5° 600 м - - - -
06:00 +3.6° З,С-З 9 13 10 км - облачно 750 751 +0.1 88% +1.8° 600 м - Влажная (без луж) - -
03:00 +3.8° З,С-З 9 12 4 км дымка {дождь} облачно 750 751 -0.4 88% +2° 600 м - - - -
00:00 +3.4° З,С-З 10 13 4 км слабый непрерывный дождь облачно 751 751 -0.5 92% +2.3° 600 м - - - -
Воскресенье, 16 Июня
Время местн. Темп Ветер Видим Явления Облачность нижн/средн/верх Атм. давл. Влжн Точка росы ВНГО R Сост. почвы Tg s
Напр Скр Прв ур.ст ур.м изм
21:00 +4° З,С-З 9 12 4 км дымка облачно 751 752 -0.2 88% +2.2° 600 м - - - -
18:00 +4.2° З,С-З 9 14 10 км - облачно 751 752 0 89% +2.6° 600 м 0 - - -
15:00 +4.4° С-З 10 13 10 км небо без изменений {морось} облачно 751 752 +0.6 87% +2.4° 600 м - - - -
12:00 +4.2° С-З 7 - 10 км небо без изменений {морось} облачно 751 751 +1.1 92% +3° 600 м - - - -